sensor_id;sensor_type;location;lat;lon;timestamp;P1;durP1;ratioP1;P2;durP2;ratioP2
57335;SDS011;43171;50.994;18.204;2023-03-21T00:00:31;29.50;;;13.60;;
57335;SDS011;43171;50.994;18.204;2023-03-21T00:10:13;34.90;;;15.50;;
57335;SDS011;43171;50.994;18.204;2023-03-21T00:19:59;31.70;;;15.70;;
57335;SDS011;43171;50.994;18.204;2023-03-21T00:29:48;24.00;;;14.40;;
57335;SDS011;43171;50.994;18.204;2023-03-21T00:39:36;25.70;;;12.60;;
57335;SDS011;43171;50.994;18.204;2023-03-21T00:49:19;12.70;;;7.60;;
57335;SDS011;43171;50.994;18.204;2023-03-21T00:59:07;31.90;;;15.00;;
57335;SDS011;43171;50.994;18.204;2023-03-21T01:09:03;32.30;;;16.30;;
57335;SDS011;43171;50.994;18.204;2023-03-21T01:18:47;33.90;;;17.10;;
57335;SDS011;43171;50.994;18.204;2023-03-21T01:28:31;51.60;;;27.40;;
57335;SDS011;43171;50.994;18.204;2023-03-21T01:38:15;38.10;;;17.90;;
57335;SDS011;43171;50.994;18.204;2023-03-21T01:48:30;42.30;;;21.10;;
57335;SDS011;43171;50.994;18.204;2023-03-21T01:58:18;40.10;;;19.10;;
57335;SDS011;43171;50.994;18.204;2023-03-21T02:08:15;37.10;;;19.70;;
57335;SDS011;43171;50.994;18.204;2023-03-21T02:28:44;24.50;;;12.90;;
57335;SDS011;43171;50.994;18.204;2023-03-21T02:38:53;33.80;;;15.80;;
57335;SDS011;43171;50.994;18.204;2023-03-21T02:59:07;29.00;;;15.50;;
57335;SDS011;43171;50.994;18.204;2023-03-21T03:19:33;27.00;;;12.40;;
57335;SDS011;43171;50.994;18.204;2023-03-21T03:29:29;24.90;;;12.60;;
57335;SDS011;43171;50.994;18.204;2023-03-21T03:39:26;30.30;;;13.70;;
57335;SDS011;43171;50.994;18.204;2023-03-21T03:50:13;25.40;;;14.00;;
57335;SDS011;43171;50.994;18.204;2023-03-21T04:00:17;34.30;;;17.00;;
57335;SDS011;43171;50.994;18.204;2023-03-21T04:10:01;23.20;;;14.40;;
57335;SDS011;43171;50.994;18.204;2023-03-21T04:14:52;43.70;;;24.70;;
57335;SDS011;43171;50.994;18.204;2023-03-21T04:24:37;17.60;;;10.30;;
57335;SDS011;43171;50.994;18.204;2023-03-21T04:34:21;37.50;;;23.30;;
57335;SDS011;43171;50.994;18.204;2023-03-21T04:44:10;33.20;;;16.70;;
57335;SDS011;43171;50.994;18.204;2023-03-21T04:53:53;33.90;;;19.10;;
57335;SDS011;43171;50.994;18.204;2023-03-21T05:03:46;30.90;;;16.00;;
57335;SDS011;43171;50.994;18.204;2023-03-21T05:06:11;38.80;;;21.40;;
57335;SDS011;43171;50.994;18.204;2023-03-21T05:15:54;29.90;;;15.60;;
57335;SDS011;43171;50.994;18.204;2023-03-21T05:25:44;39.80;;;19.60;;
57335;SDS011;43171;50.994;18.204;2023-03-21T05:35:26;40.80;;;18.70;;
57335;SDS011;43171;50.994;18.204;2023-03-21T05:45:08;35.20;;;17.20;;
57335;SDS011;43171;50.994;18.204;2023-03-21T05:54:52;57.80;;;21.40;;
57335;SDS011;43171;50.994;18.204;2023-03-21T06:11:52;39.50;;;19.20;;
57335;SDS011;43171;50.994;18.204;2023-03-21T06:21:36;31.30;;;18.70;;
57335;SDS011;43171;50.994;18.204;2023-03-21T06:31:18;34.50;;;17.80;;
57335;SDS011;43171;50.994;18.204;2023-03-21T06:41:04;41.40;;;18.90;;
57335;SDS011;43171;50.994;18.204;2023-03-21T06:50:49;46.00;;;20.10;;
57335;SDS011;43171;50.994;18.204;2023-03-21T07:00:32;38.90;;;21.00;;
57335;SDS011;43171;50.994;18.204;2023-03-21T07:10:15;38.60;;;19.40;;
57335;SDS011;43171;50.994;18.204;2023-03-21T07:19:58;37.10;;;16.30;;
57335;SDS011;43171;50.994;18.204;2023-03-21T07:29:41;42.80;;;20.90;;
57335;SDS011;43171;50.994;18.204;2023-03-21T07:39:25;29.60;;;16.80;;
57335;SDS011;43171;50.994;18.204;2023-03-21T07:49:12;34.60;;;17.20;;
57335;SDS011;43171;50.994;18.204;2023-03-21T07:51:37;39.40;;;22.00;;
57335;SDS011;43171;50.994;18.204;2023-03-21T08:01:20;29.60;;;16.00;;
57335;SDS011;43171;50.994;18.204;2023-03-21T08:11:03;42.10;;;19.70;;
57335;SDS011;43171;50.994;18.204;2023-03-21T08:20:55;26.00;;;13.10;;
57335;SDS011;43171;50.994;18.204;2023-03-21T08:30:46;22.40;;;13.10;;
57335;SDS011;43171;50.994;18.204;2023-03-21T08:40:29;22.20;;;12.70;;
57335;SDS011;43171;50.994;18.204;2023-03-21T08:50:13;23.90;;;10.80;;
57335;SDS011;43171;50.994;18.204;2023-03-21T08:59:58;17.00;;;8.90;;
57335;SDS011;43171;50.994;18.204;2023-03-21T09:09:44;19.20;;;10.00;;
57335;SDS011;43171;50.994;18.204;2023-03-21T09:19:28;16.50;;;9.30;;
57335;SDS011;43171;50.994;18.204;2023-03-21T09:29:16;17.80;;;10.00;;
57335;SDS011;43171;50.994;18.204;2023-03-21T09:39:06;15.30;;;9.00;;
57335;SDS011;43171;50.994;18.204;2023-03-21T10:00:14;12.80;;;8.40;;
57335;SDS011;43171;50.994;18.204;2023-03-21T10:17:39;21.70;;;11.90;;
57335;SDS011;43171;50.994;18.204;2023-03-21T10:27:31;11.50;;;7.40;;
57335;SDS011;43171;50.994;18.204;2023-03-21T10:37:18;13.20;;;6.80;;
57335;SDS011;43171;50.994;18.204;2023-03-21T10:47:07;10.60;;;6.60;;
57335;SDS011;43171;50.994;18.204;2023-03-21T10:57:05;12.30;;;7.30;;
57335;SDS011;43171;50.994;18.204;2023-03-21T11:06:58;10.20;;;7.10;;
57335;SDS011;43171;50.994;18.204;2023-03-21T11:17:16;9.10;;;7.40;;
57335;SDS011;43171;50.994;18.204;2023-03-21T11:27:14;12.10;;;7.60;;
57335;SDS011;43171;50.994;18.204;2023-03-21T11:37:15;14.80;;;7.40;;
57335;SDS011;43171;50.994;18.204;2023-03-21T11:47:34;12.00;;;6.70;;
57335;SDS011;43171;50.994;18.204;2023-03-21T12:28:46;13.60;;;4.60;;
57335;SDS011;43171;50.994;18.204;2023-03-21T12:39:29;6.80;;;5.30;;
57335;SDS011;43171;50.994;18.204;2023-03-21T12:49:28;4.50;;;3.60;;
57335;SDS011;43171;50.994;18.204;2023-03-21T13:10:14;12.50;;;8.40;;
57335;SDS011;43171;50.994;18.204;2023-03-21T13:30:22;16.30;;;6.50;;
57335;SDS011;43171;50.994;18.204;2023-03-21T13:40:19;9.20;;;6.80;;
57335;SDS011;43171;50.994;18.204;2023-03-21T13:50:50;13.30;;;5.90;;
57335;SDS011;43171;50.994;18.204;2023-03-21T14:11:20;12.80;;;7.30;;
57335;SDS011;43171;50.994;18.204;2023-03-21T14:21:12;13.80;;;6.70;;
57335;SDS011;43171;50.994;18.204;2023-03-21T14:38:32;22.60;;;9.50;;
57335;SDS011;43171;50.994;18.204;2023-03-21T14:48:19;12.30;;;7.40;;
57335;SDS011;43171;50.994;18.204;2023-03-21T14:58:27;15.20;;;9.20;;
57335;SDS011;43171;50.994;18.204;2023-03-21T15:08:16;20.50;;;9.60;;
57335;SDS011;43171;50.994;18.204;2023-03-21T15:18:36;28.50;;;9.20;;
57335;SDS011;43171;50.994;18.204;2023-03-21T15:28:29;14.30;;;9.60;;
57335;SDS011;43171;50.994;18.204;2023-03-21T15:38:21;19.70;;;9.50;;
57335;SDS011;43171;50.994;18.204;2023-03-21T15:48:36;7.70;;;6.50;;
57335;SDS011;43171;50.994;18.204;2023-03-21T15:51:03;19.00;;;12.40;;
57335;SDS011;43171;50.994;18.204;2023-03-21T16:01:00;17.30;;;10.10;;
57335;SDS011;43171;50.994;18.204;2023-03-21T16:21:14;20.80;;;11.20;;
57335;SDS011;43171;50.994;18.204;2023-03-21T16:31:11;31.30;;;12.30;;
57335;SDS011;43171;50.994;18.204;2023-03-21T16:40:56;17.40;;;11.50;;
57335;SDS011;43171;50.994;18.204;2023-03-21T16:50:41;22.40;;;14.60;;
57335;SDS011;43171;50.994;18.204;2023-03-21T17:00:27;49.50;;;18.00;;
57335;SDS011;43171;50.994;18.204;2023-03-21T17:10:16;27.10;;;15.50;;
57335;SDS011;43171;50.994;18.204;2023-03-21T17:20:09;45.30;;;20.40;;
57335;SDS011;43171;50.994;18.204;2023-03-21T17:30:02;46.20;;;20.20;;
57335;SDS011;43171;50.994;18.204;2023-03-21T17:39:50;55.50;;;23.70;;
57335;SDS011;43171;50.994;18.204;2023-03-21T17:49:34;53.00;;;23.10;;
57335;SDS011;43171;50.994;18.204;2023-03-21T17:59:16;27.40;;;14.70;;
57335;SDS011;43171;50.994;18.204;2023-03-21T18:08:58;28.10;;;16.60;;
57335;SDS011;43171;50.994;18.204;2023-03-21T18:18:42;22.70;;;15.00;;
57335;SDS011;43171;50.994;18.204;2023-03-21T18:28:30;31.60;;;17.30;;
57335;SDS011;43171;50.994;18.204;2023-03-21T18:38:13;35.40;;;14.10;;
57335;SDS011;43171;50.994;18.204;2023-03-21T18:47:56;34.90;;;19.80;;
57335;SDS011;43171;50.994;18.204;2023-03-21T18:57:40;34.90;;;18.00;;
57335;SDS011;43171;50.994;18.204;2023-03-21T19:07:29;41.20;;;22.30;;
57335;SDS011;43171;50.994;18.204;2023-03-21T19:17:11;31.80;;;17.90;;
57335;SDS011;43171;50.994;18.204;2023-03-21T19:26:55;16.50;;;11.10;;
57335;SDS011;43171;50.994;18.204;2023-03-21T19:36:40;38.50;;;23.00;;
57335;SDS011;43171;50.994;18.204;2023-03-21T19:46:24;31.50;;;18.20;;
57335;SDS011;43171;50.994;18.204;2023-03-21T19:56:09;30.10;;;17.20;;
57335;SDS011;43171;50.994;18.204;2023-03-21T20:05:59;37.00;;;17.40;;
57335;SDS011;43171;50.994;18.204;2023-03-21T20:15:43;43.20;;;25.40;;
57335;SDS011;43171;50.994;18.204;2023-03-21T20:25:25;68.50;;;34.20;;
57335;SDS011;43171;50.994;18.204;2023-03-21T20:27:51;46.90;;;29.80;;
57335;SDS011;43171;50.994;18.204;2023-03-21T20:37:37;39.60;;;24.20;;
57335;SDS011;43171;50.994;18.204;2023-03-21T20:47:28;47.60;;;28.90;;
57335;SDS011;43171;50.994;18.204;2023-03-21T20:57:15;41.20;;;21.20;;
57335;SDS011;43171;50.994;18.204;2023-03-21T21:07:04;40.40;;;21.10;;
57335;SDS011;43171;50.994;18.204;2023-03-21T21:16:47;56.30;;;23.00;;
57335;SDS011;43171;50.994;18.204;2023-03-21T21:26:30;42.00;;;23.00;;
57335;SDS011;43171;50.994;18.204;2023-03-21T21:36:18;43.80;;;19.50;;
57335;SDS011;43171;50.994;18.204;2023-03-21T21:46:05;38.00;;;16.60;;
57335;SDS011;43171;50.994;18.204;2023-03-21T21:55:52;50.80;;;18.50;;
57335;SDS011;43171;50.994;18.204;2023-03-21T22:05:39;29.20;;;17.00;;
57335;SDS011;43171;50.994;18.204;2023-03-21T22:15:22;34.50;;;20.40;;
57335;SDS011;43171;50.994;18.204;2023-03-21T22:25:07;35.70;;;19.60;;
57335;SDS011;43171;50.994;18.204;2023-03-21T22:35:02;52.30;;;24.10;;
57335;SDS011;43171;50.994;18.204;2023-03-21T22:44:45;49.60;;;22.60;;
57335;SDS011;43171;50.994;18.204;2023-03-21T22:54:28;44.10;;;20.80;;
57335;SDS011;43171;50.994;18.204;2023-03-21T23:04:10;46.30;;;23.40;;
57335;SDS011;43171;50.994;18.204;2023-03-21T23:13:55;40.20;;;20.20;;
57335;SDS011;43171;50.994;18.204;2023-03-21T23:23:43;42.50;;;21.70;;
57335;SDS011;43171;50.994;18.204;2023-03-21T23:33:36;44.70;;;24.30;;
57335;SDS011;43171;50.994;18.204;2023-03-21T23:43:19;59.50;;;21.80;;
57335;SDS011;43171;50.994;18.204;2023-03-21T23:53:01;56.20;;;22.10;;
